Time;durP1;ratioP1;P1;durP2;ratioP2;P2;SDS_P1;SDS_P2;PMS_P1;PMS_P2;Temp;Humidity;BMP_temperature;BMP_pressure;BME280_temperature;BME280_humidity;BME280_pressure;Samples;Min_cycle;Max_cycle;Signal;HPM_P1;HPM_P2
2022/11/29 00:01:11;;;;;;;35.50;15.50;;;;;;;;;;106722;1294;22109;-75
2022/11/29 00:03:38;;;;;;;36.00;16.50;;;;;;;;;;106645;1307;21984;-75
2022/11/29 00:06:07;;;;;;;37.20;15.80;;;;;;;;;;106906;1306;21940;-75
2022/11/29 00:08:35;;;;;;;37.00;15.90;;;;;;;;;;106594;1310;22887;-75
2022/11/29 00:11:06;;;;;;;36.70;16.00;;;;;;;;;;106636;1310;21935;-76
2022/11/29 00:13:36;;;;;;;35.50;15.80;;;;;;;;;;106683;1310;22969;-75
2022/11/29 00:16:07;;;;;;;37.60;15.80;;;;;;;;;;106617;1310;22776;-75
2022/11/29 00:18:36;;;;;;;35.60;16.40;;;;;;;;;;106711;1305;22039;-75
2022/11/29 00:21:06;;;;;;;36.00;15.50;;;;;;;;;;106881;1310;22122;-74
2022/11/29 00:23:35;;;;;;;37.70;15.80;;;;;;;;;;106662;1310;22121;-75
2022/11/29 00:26:07;;;;;;;35.00;14.80;;;;;;;;;;106740;1310;22014;-75
2022/11/29 00:28:36;;;;;;;35.80;15.40;;;;;;;;;;106628;1310;22842;-74
2022/11/29 00:31:21;;;;;;;36.20;15.40;;;;;;;;;;106788;1309;22410;-75
2022/11/29 00:33:50;;;;;;;34.60;15.70;;;;;;;;;;106653;1310;21979;-75
2022/11/29 00:36:20;;;;;;;33.00;13.70;;;;;;;;;;106672;1310;22097;-75
2022/11/29 00:38:49;;;;;;;33.30;14.90;;;;;;;;;;106709;1310;22061;-75
2022/11/29 00:41:19;;;;;;;34.00;15.20;;;;;;;;;;106907;1309;22096;-75
2022/11/29 00:43:48;;;;;;;32.30;14.70;;;;;;;;;;106723;1310;22096;-75
2022/11/29 00:46:17;;;;;;;33.10;14.70;;;;;;;;;;106899;1298;22086;-75
2022/11/29 00:48:46;;;;;;;37.30;16.00;;;;;;;;;;106607;1310;22133;-75
2022/11/29 00:51:15;;;;;;;33.80;14.40;;;;;;;;;;106647;1310;22207;-75
2022/11/29 00:53:44;;;;;;;33.20;14.80;;;;;;;;;;106650;1308;22054;-74
2022/11/29 00:56:13;;;;;;;32.30;13.60;;;;;;;;;;106776;1310;21998;-75
2022/11/29 00:58:42;;;;;;;34.40;15.50;;;;;;;;;;106805;1310;22674;-74
2022/11/29 01:01:11;;;;;;;35.40;14.90;;;;;;;;;;106702;1309;22057;-75
2022/11/29 01:03:40;;;;;;;32.80;15.00;;;;;;;;;;106904;1310;22069;-75
2022/11/29 01:06:11;;;;;;;34.30;14.90;;;;;;;;;;106656;1309;22113;-75
2022/11/29 01:08:41;;;;;;;36.00;15.90;;;;;;;;;;106614;1310;22047;-75
2022/11/29 01:11:27;;;;;;;36.10;15.60;;;;;;;;;;106631;1304;22091;-75
2022/11/29 01:20:57;;;;;;;35.50;15.80;;;;;;;;;;100379;1334;545005;-79
2022/11/29 01:23:24;;;;;;;32.00;15.40;;;;;;;;;;102706;1315;22543;-77
2022/11/29 01:25:59;;;;;;;33.20;14.40;;;;;;;;;;102544;1311;23731;-75
2022/11/29 01:28:26;;;;;;;34.90;15.20;;;;;;;;;;102667;1316;25349;-78
2022/11/29 01:30:52;;;;;;;34.70;15.40;;;;;;;;;;102575;1315;24321;-81
2022/11/29 01:33:19;;;;;;;34.30;15.00;;;;;;;;;;102346;1319;22734;-79
2022/11/29 01:35:50;;;;;;;34.70;14.90;;;;;;;;;;101741;1316;1391693;-78
2022/11/29 01:38:17;;;;;;;37.10;15.30;;;;;;;;;;102717;1307;23083;-76
2022/11/29 01:40:45;;;;;;;35.80;15.40;;;;;;;;;;102735;1301;24327;-83
2022/11/29 01:43:16;;;;;;;29.20;13.40;;;;;;;;;;102887;1317;22663;-76
2022/11/29 01:45:43;;;;;;;34.30;14.90;;;;;;;;;;103450;1307;25266;-80
2022/11/29 01:48:12;;;;;;;33.30;15.10;;;;;;;;;;103435;1307;22531;-75
2022/11/29 01:50:40;;;;;;;34.50;15.10;;;;;;;;;;103457;1307;25374;-76
2022/11/29 01:53:07;;;;;;;37.10;15.70;;;;;;;;;;103404;1307;24340;-79
2022/11/29 01:55:36;;;;;;;39.50;14.70;;;;;;;;;;103290;1307;22474;-81
2022/11/29 01:58:03;;;;;;;33.70;14.30;;;;;;;;;;103489;1307;25208;-79
2022/11/29 02:00:30;;;;;;;35.10;14.90;;;;;;;;;;103413;1305;22463;-81
2022/11/29 02:03:00;;;;;;;33.80;14.30;;;;;;;;;;103119;1310;25371;-75
2022/11/29 02:05:27;;;;;;;35.50;15.00;;;;;;;;;;103432;1304;22413;-79
2022/11/29 02:07:56;;;;;;;35.70;15.40;;;;;;;;;;103372;1302;22463;-82
2022/11/29 02:10:27;;;;;;;36.50;16.30;;;;;;;;;;103296;1310;25333;-77
2022/11/29 02:13:20;;;;;;;34.80;14.70;;;;;;;;;;103250;1307;25338;-75
2022/11/29 02:15:59;;;;;;;33.80;14.60;;;;;;;;;;103197;1307;22473;-76
2022/11/29 02:18:32;;;;;;;35.00;15.80;;;;;;;;;;103241;1307;22544;-80
2022/11/29 02:21:25;;;;;;;35.20;15.00;;;;;;;;;;103445;1297;22528;-79
2022/11/29 02:23:51;;;;;;;31.90;13.20;;;;;;;;;;102717;1315;24973;-82
2022/11/29 02:26:33;;;;;;;35.60;15.20;;;;;;;;;;102695;1315;24245;-76
2022/11/29 02:29:18;;;;;;;36.40;15.70;;;;;;;;;;102496;1315;24034;-75
2022/11/29 02:31:51;;;;;;;35.10;15.00;;;;;;;;;;102658;1315;22900;-80
2022/11/29 02:34:23;;;;;;;35.90;15.10;;;;;;;;;;102875;1316;24278;-75
2022/11/29 02:36:55;;;;;;;36.60;15.90;;;;;;;;;;102850;1314;25286;-79
2022/11/29 02:39:25;;;;;;;38.20;14.40;;;;;;;;;;102832;1315;25219;-79
2022/11/29 02:42:03;;;;;;;32.50;15.20;;;;;;;;;;102713;1308;24334;-79
2022/11/29 02:44:30;;;;;;;33.70;15.10;;;;;;;;;;102721;1310;22591;-78
2022/11/29 02:47:17;;;;;;;34.40;15.30;;;;;;;;;;102716;1316;22478;-82
2022/11/29 02:49:43;;;;;;;33.40;14.20;;;;;;;;;;102191;1322;25354;-79
2022/11/29 02:52:24;;;;;;;36.50;15.50;;;;;;;;;;102217;1320;23866;-78
2022/11/29 02:54:57;;;;;;;34.80;14.90;;;;;;;;;;102308;1319;22480;-79
2022/11/29 02:57:36;;;;;;;34.90;15.30;;;;;;;;;;102428;1319;24246;-78
2022/11/29 03:00:13;;;;;;;34.00;14.70;;;;;;;;;;102424;1318;22494;-76
2022/11/29 03:02:52;;;;;;;31.80;14.20;;;;;;;;;;102790;1313;25268;-75
2022/11/29 03:05:27;;;;;;;34.60;14.10;;;;;;;;;;102848;1313;22477;-82
2022/11/29 03:08:13;;;;;;;33.60;13.60;;;;;;;;;;102906;1305;22559;-78
2022/11/29 03:10:58;;;;;;;31.30;13.70;;;;;;;;;;102866;1313;22483;-75
2022/11/29 03:13:30;;;;;;;34.90;15.00;;;;;;;;;;102854;1313;22469;-78
2022/11/29 03:16:02;;;;;;;36.80;15.00;;;;;;;;;;102839;1313;22533;-76
2022/11/29 03:18:49;;;;;;;37.10;15.60;;;;;;;;;;102528;1314;22653;-76
2022/11/29 03:21:35;;;;;;;36.70;15.10;;;;;;;;;;102587;1317;22558;-83
2022/11/29 03:24:05;;;;;;;36.40;14.80;;;;;;;;;;102812;1313;24237;-80
2022/11/29 03:26:38;;;;;;;34.20;14.30;;;;;;;;;;102629;1306;24240;-79
2022/11/29 03:29:08;;;;;;;32.80;14.20;;;;;;;;;;103462;1306;25404;-80
2022/11/29 03:31:35;;;;;;;33.80;14.00;;;;;;;;;;103145;1306;24356;-81
2022/11/29 03:34:05;;;;;;;35.80;14.20;;;;;;;;;;103404;1307;25610;-78
2022/11/29 03:36:31;;;;;;;39.80;15.40;;;;;;;;;;103492;1303;24259;-79
2022/11/29 03:39:02;;;;;;;32.90;14.20;;;;;;;;;;103481;1307;24266;-82
2022/11/29 03:41:50;;;;;;;33.80;13.20;;;;;;;;;;103442;1295;25342;-76
2022/11/29 03:44:17;;;;;;;37.40;14.50;;;;;;;;;;103410;1306;25249;-79
2022/11/29 03:47:03;;;;;;;34.60;14.90;;;;;;;;;;103432;1285;25266;-79
2022/11/29 03:49:48;;;;;;;34.20;13.80;;;;;;;;;;103319;1309;24308;-75
2022/11/29 03:52:18;;;;;;;38.10;14.20;;;;;;;;;;103455;1306;22477;-80
2022/11/29 03:55:03;;;;;;;39.90;15.90;;;;;;;;;;103668;1307;22475;-76
2022/11/29 03:57:37;;;;;;;33.80;14.40;;;;;;;;;;103269;1307;22467;-76
2022/11/29 04:00:06;;;;;;;36.00;13.70;;;;;;;;;;103191;1307;24323;-77
2022/11/29 04:02:44;;;;;;;38.40;14.90;;;;;;;;;;103442;1291;24426;-76
2022/11/29 04:05:11;;;;;;;37.10;14.40;;;;;;;;;;103437;1300;22470;-80
2022/11/29 04:07:44;;;;;;;36.50;14.80;;;;;;;;;;103460;1306;25354;-79
2022/11/29 04:10:13;;;;;;;36.30;14.00;;;;;;;;;;103432;1306;23872;-77
2022/11/29 04:12:40;;;;;;;39.00;16.40;;;;;;;;;;103386;1302;22593;-78
2022/11/29 04:15:19;;;;;;;39.70;15.30;;;;;;;;;;103413;1307;22514;-82
2022/11/29 04:18:04;;;;;;;36.30;14.50;;;;;;;;;;103431;1307;22525;-82
2022/11/29 04:20:51;;;;;;;35.10;13.90;;;;;;;;;;103449;1307;24439;-77
2022/11/29 04:23:37;;;;;;;36.40;15.00;;;;;;;;;;103447;1285;22463;-82
2022/11/29 04:26:03;;;;;;;35.10;13.70;;;;;;;;;;103528;1307;22483;-81
2022/11/29 04:28:41;;;;;;;40.70;15.40;;;;;;;;;;103464;1291;22721;-81
2022/11/29 04:31:13;;;;;;;37.60;14.40;;;;;;;;;;103339;1302;24046;-79
2022/11/29 04:33:59;;;;;;;38.50;15.70;;;;;;;;;;103423;1307;25368;-76
2022/11/29 04:36:41;;;;;;;39.00;14.30;;;;;;;;;;103460;1307;22456;-76
2022/11/29 04:39:07;;;;;;;34.20;14.50;;;;;;;;;;103466;1307;24219;-82
2022/11/29 04:41:43;;;;;;;39.30;15.10;;;;;;;;;;103429;1293;21721;-77
2022/11/29 04:44:15;;;;;;;41.60;15.70;;;;;;;;;;103475;1304;24302;-77
2022/11/29 04:47:01;;;;;;;39.70;15.90;;;;;;;;;;103451;1307;24285;-79
2022/11/29 04:49:57;;;;;;;36.10;14.70;;;;;;;;;;103506;1307;25453;-75
2022/11/29 04:52:38;;;;;;;38.00;14.30;;;;;;;;;;103450;1307;22465;-81
2022/11/29 04:55:20;;;;;;;34.90;14.40;;;;;;;;;;103403;1307;24247;-80
2022/11/29 04:58:00;;;;;;;35.40;14.90;;;;;;;;;;103467;1307;22502;-79
2022/11/29 05:00:30;;;;;;;39.50;15.40;;;;;;;;;;103494;1305;22508;-76
2022/11/29 05:02:58;;;;;;;37.40;14.80;;;;;;;;;;103356;1295;25329;-79
2022/11/29 05:05:40;;;;;;;41.60;16.30;;;;;;;;;;103480;1307;22816;-78
2022/11/29 05:08:26;;;;;;;38.10;15.00;;;;;;;;;;103444;1307;24710;-80
2022/11/29 05:11:13;;;;;;;41.10;16.30;;;;;;;;;;103430;1307;22464;-79
2022/11/29 05:13:43;;;;;;;38.20;15.50;;;;;;;;;;103492;1307;25502;-75
2022/11/29 05:16:27;;;;;;;38.40;15.50;;;;;;;;;;103354;1307;22700;-75
2022/11/29 05:19:13;;;;;;;41.70;15.40;;;;;;;;;;103389;1307;25630;-80
2022/11/29 05:21:59;;;;;;;37.10;14.60;;;;;;;;;;103423;1307;22466;-76
2022/11/29 05:24:44;;;;;;;42.90;17.00;;;;;;;;;;103422;1306;22469;-80
2022/11/29 05:27:11;;;;;;;41.60;15.60;;;;;;;;;;103428;1306;22512;-79
2022/11/29 05:29:53;;;;;;;44.10;16.30;;;;;;;;;;103468;1306;24221;-76
2022/11/29 05:32:22;;;;;;;41.80;16.80;;;;;;;;;;103414;1306;22490;-77
2022/11/29 05:34:49;;;;;;;41.30;16.70;;;;;;;;;;103465;1306;24237;-76
2022/11/29 05:37:16;;;;;;;41.20;17.00;;;;;;;;;;103333;1308;22482;-78
2022/11/29 05:40:01;;;;;;;40.20;15.80;;;;;;;;;;103350;1310;24194;-75
2022/11/29 05:42:36;;;;;;;42.20;16.50;;;;;;;;;;103421;1308;22854;-82
2022/11/29 05:45:07;;;;;;;42.90;17.20;;;;;;;;;;103389;1278;22467;-80
2022/11/29 05:47:38;;;;;;;42.00;16.80;;;;;;;;;;103364;1291;25434;-79
2022/11/29 05:50:13;;;;;;;45.00;18.10;;;;;;;;;;103421;1309;22467;-82
2022/11/29 05:52:49;;;;;;;42.20;15.90;;;;;;;;;;103269;1309;24317;-80
2022/11/29 05:55:28;;;;;;;45.30;16.60;;;;;;;;;;103344;1299;22468;-82
2022/11/29 05:58:01;;;;;;;45.90;16.70;;;;;;;;;;103356;1308;23885;-76
2022/11/29 06:00:47;;;;;;;44.10;16.90;;;;;;;;;;103378;1308;22443;-81
2022/11/29 06:03:28;;;;;;;43.80;16.50;;;;;;;;;;103413;1313;22549;-79
2022/11/29 06:06:21;;;;;;;37.10;14.80;;;;;;;;;;103229;1295;24322;-81
2022/11/29 06:08:51;;;;;;;40.70;14.90;;;;;;;;;;103380;1303;22458;-77
2022/11/29 06:11:26;;;;;;;41.00;15.40;;;;;;;;;;103447;1292;22486;-78
2022/11/29 06:13:53;;;;;;;32.90;13.80;;;;;;;;;;103449;1309;22479;-78
2022/11/29 06:16:32;;;;;;;37.30;14.50;;;;;;;;;;103212;1292;24371;-77
2022/11/29 06:19:05;;;;;;;34.90;13.40;;;;;;;;;;103397;1310;22464;-82
2022/11/29 06:21:40;;;;;;;31.70;13.00;;;;;;;;;;103470;1313;22488;-76
2022/11/29 06:24:27;;;;;;;33.10;12.80;;;;;;;;;;103419;1286;22468;-83
2022/11/29 06:27:09;;;;;;;29.00;12.70;;;;;;;;;;103485;1307;22434;-80
2022/11/29 06:29:44;;;;;;;28.50;11.60;;;;;;;;;;103425;1302;22482;-83
2022/11/29 06:32:24;;;;;;;27.80;11.50;;;;;;;;;;103478;1310;22460;-78
2022/11/29 06:34:58;;;;;;;26.50;10.80;;;;;;;;;;103447;1293;22471;-80
2022/11/29 06:37:27;;;;;;;23.20;10.60;;;;;;;;;;103516;1310;24253;-81
2022/11/29 06:39:54;;;;;;;24.90;10.70;;;;;;;;;;103446;1310;22486;-81
2022/11/29 06:42:21;;;;;;;23.30;10.20;;;;;;;;;;103243;1310;22627;-79
2022/11/29 06:44:48;;;;;;;26.20;11.50;;;;;;;;;;103358;1298;26472;-82
2022/11/29 06:47:14;;;;;;;27.00;11.20;;;;;;;;;;103441;1307;23052;-84
2022/11/29 06:49:47;;;;;;;24.20;11.40;;;;;;;;;;103434;1310;22478;-84
2022/11/29 06:52:21;;;;;;;22.10;10.10;;;;;;;;;;103605;1307;22689;-79
2022/11/29 06:54:57;;;;;;;28.80;11.50;;;;;;;;;;103538;1307;24237;-78
2022/11/29 06:57:29;;;;;;;27.40;11.60;;;;;;;;;;103730;1302;24439;-76
2022/11/29 07:00:15;;;;;;;23.50;10.70;;;;;;;;;;103477;1307;24275;-83
2022/11/29 07:02:48;;;;;;;23.40;11.40;;;;;;;;;;103376;1291;25403;-81
2022/11/29 07:05:22;;;;;;;25.60;11.70;;;;;;;;;;103369;1288;22462;-82
2022/11/29 07:07:50;;;;;;;27.10;11.70;;;;;;;;;;103492;1291;24216;-78
2022/11/29 07:10:18;;;;;;;27.10;11.50;;;;;;;;;;103490;1307;22708;-82
2022/11/29 07:12:46;;;;;;;26.20;11.50;;;;;;;;;;103496;1311;24237;-80
2022/11/29 07:15:17;;;;;;;26.20;11.60;;;;;;;;;;103494;1307;24253;-82
2022/11/29 07:17:59;;;;;;;28.40;11.70;;;;;;;;;;103374;1306;22427;-83
2022/11/29 07:20:34;;;;;;;28.70;12.30;;;;;;;;;;103551;1310;22592;-84
2022/11/29 07:23:13;;;;;;;29.80;12.70;;;;;;;;;;103279;1310;25340;-78
2022/11/29 07:25:59;;;;;;;28.20;12.40;;;;;;;;;;103349;1307;24289;-82
2022/11/29 07:28:38;;;;;;;29.20;13.70;;;;;;;;;;103389;1309;25255;-79
2022/11/29 07:31:10;;;;;;;28.80;12.30;;;;;;;;;;103204;1287;24188;-81
2022/11/29 07:33:37;;;;;;;30.30;12.60;;;;;;;;;;103342;1312;24184;-83
2022/11/29 07:36:04;;;;;;;26.50;12.50;;;;;;;;;;103537;1307;22244;-77
2022/11/29 07:38:31;;;;;;;28.70;13.60;;;;;;;;;;103205;1309;25293;-78
2022/11/29 07:40:59;;;;;;;33.10;13.70;;;;;;;;;;103342;1308;24036;-79
2022/11/29 07:43:35;;;;;;;31.80;13.80;;;;;;;;;;103355;1295;24278;-83
2022/11/29 07:46:02;;;;;;;29.80;13.90;;;;;;;;;;103470;1301;23065;-79
2022/11/29 07:48:29;;;;;;;31.10;13.70;;;;;;;;;;103361;1307;22480;-84
2022/11/29 07:50:56;;;;;;;30.90;14.60;;;;;;;;;;103473;1310;25293;-80
2022/11/29 07:53:23;;;;;;;32.40;14.40;;;;;;;;;;103444;1296;22485;-79
2022/11/29 07:55:50;;;;;;;29.70;13.40;;;;;;;;;;103395;1306;22999;-82
2022/11/29 07:58:17;;;;;;;34.60;15.10;;;;;;;;;;103307;1290;22481;-81
2022/11/29 08:00:44;;;;;;;30.00;13.90;;;;;;;;;;103231;1310;25337;-78
2022/11/29 08:03:11;;;;;;;30.90;14.70;;;;;;;;;;103381;1313;22467;-76
2022/11/29 08:05:38;;;;;;;30.60;14.40;;;;;;;;;;103530;1313;24190;-76
2022/11/29 08:08:05;;;;;;;30.20;14.50;;;;;;;;;;103573;1312;23111;-76
2022/11/29 08:10:33;;;;;;;31.60;15.70;;;;;;;;;;103357;1312;24304;-76
2022/11/29 08:12:59;;;;;;;35.80;17.30;;;;;;;;;;103436;1303;22474;-76
2022/11/29 08:15:26;;;;;;;31.10;14.80;;;;;;;;;;103541;1312;23924;-76
2022/11/29 08:17:53;;;;;;;29.70;13.20;;;;;;;;;;103317;1312;22482;-80
2022/11/29 08:20:20;;;;;;;27.60;13.50;;;;;;;;;;103230;1310;25095;-81
2022/11/29 08:22:56;;;;;;;32.60;16.00;;;;;;;;;;103452;1304;22472;-83
2022/11/29 08:25:23;;;;;;;33.30;14.70;;;;;;;;;;103257;1296;22614;-77
2022/11/29 08:27:50;;;;;;;32.80;15.20;;;;;;;;;;103435;1313;25528;-76
2022/11/29 08:30:20;;;;;;;29.60;15.00;;;;;;;;;;103468;1307;25382;-79
2022/11/29 08:32:48;;;;;;;28.00;14.00;;;;;;;;;;103437;1305;24666;-82
2022/11/29 08:35:16;;;;;;;28.10;14.70;;;;;;;;;;103479;1302;22940;-81
2022/11/29 08:37:43;;;;;;;26.20;12.20;;;;;;;;;;103464;1313;22475;-76
2022/11/29 08:40:10;;;;;;;23.10;11.60;;;;;;;;;;103436;1309;23209;-77
2022/11/29 08:42:36;;;;;;;27.70;13.30;;;;;;;;;;103483;1308;22482;-78
2022/11/29 08:45:05;;;;;;;26.90;13.10;;;;;;;;;;103388;1310;23886;-78
2022/11/29 08:47:34;;;;;;;38.10;18.60;;;;;;;;;;103390;1285;24241;-77
2022/11/29 08:50:11;;;;;;;42.00;19.40;;;;;;;;;;103391;1307;22468;-82
2022/11/29 08:55:25;;;;;;;31.40;15.40;;;;;;;;;;103831;1304;24256;-78
2022/11/29 08:57:52;;;;;;;31.40;14.90;;;;;;;;;;103811;1310;22480;-81
2022/11/29 09:00:20;;;;;;;32.70;13.70;;;;;;;;;;103694;1307;22472;-81
2022/11/29 09:02:47;;;;;;;27.40;13.40;;;;;;;;;;103474;1288;23856;-83
2022/11/29 09:05:15;;;;;;;28.10;13.30;;;;;;;;;;103605;1304;22476;-80
2022/11/29 09:07:42;;;;;;;27.70;13.30;;;;;;;;;;103444;1307;24765;-83
2022/11/29 09:10:10;;;;;;;28.60;14.20;;;;;;;;;;103660;1302;22460;-78
2022/11/29 09:12:38;;;;;;;29.80;14.40;;;;;;;;;;103762;1305;22481;-76
2022/11/29 09:15:07;;;;;;;34.70;16.50;;;;;;;;;;103711;1304;22482;-81
2022/11/29 09:17:34;;;;;;;33.10;15.20;;;;;;;;;;103565;1307;25211;-78
2022/11/29 09:20:01;;;;;;;30.90;15.20;;;;;;;;;;103594;1306;22481;-76
2022/11/29 09:22:28;;;;;;;30.00;14.60;;;;;;;;;;103478;1307;22606;-82
2022/11/29 09:24:54;;;;;;;32.20;15.10;;;;;;;;;;103398;1307;22468;-78
2022/11/29 09:27:21;;;;;;;30.10;14.10;;;;;;;;;;103367;1294;22478;-77
2022/11/29 09:29:48;;;;;;;28.40;13.30;;;;;;;;;;103473;1291;22460;-78
2022/11/29 09:32:18;;;;;;;30.30;14.20;;;;;;;;;;103506;1299;22431;-77
2022/11/29 09:34:45;;;;;;;27.30;13.80;;;;;;;;;;103522;1304;22755;-77
2022/11/29 09:37:11;;;;;;;30.30;15.30;;;;;;;;;;103550;1304;22530;-77
2022/11/29 09:39:40;;;;;;;29.40;14.80;;;;;;;;;;103411;1307;22979;-78
2022/11/29 09:42:08;;;;;;;26.40;13.80;;;;;;;;;;103517;1307;22472;-80
2022/11/29 09:44:54;;;;;;;26.80;13.90;;;;;;;;;;103458;1304;22512;-80
2022/11/29 09:47:42;;;;;;;29.60;14.70;;;;;;;;;;103514;1307;24266;-81
2022/11/29 09:50:41;;;;;;;26.20;10.30;;;;;;;;;;103550;1298;22706;-77
2022/11/29 09:53:11;;;;;;;31.90;15.10;;;;;;;;;;103508;1304;22598;-81
2022/11/29 09:55:38;;;;;;;32.60;15.20;;;;;;;;;;103686;1298;25388;-80
2022/11/29 09:58:09;;;;;;;28.80;13.40;;;;;;;;;;103439;1304;22462;-80
2022/11/29 10:00:39;;;;;;;28.20;13.80;;;;;;;;;;103491;1290;22499;-78
2022/11/29 10:03:13;;;;;;;34.10;15.80;;;;;;;;;;103486;1307;23848;-78
2022/11/29 10:05:43;;;;;;;33.10;14.80;;;;;;;;;;103610;1304;22477;-76
2022/11/29 10:08:22;;;;;;;37.10;16.30;;;;;;;;;;103456;1307;25366;-77
2022/11/29 10:10:52;;;;;;;37.90;16.00;;;;;;;;;;103797;1302;24839;-78
2022/11/29 10:13:28;;;;;;;34.50;17.40;;;;;;;;;;103653;1303;25171;-78
2022/11/29 10:15:57;;;;;;;36.60;16.80;;;;;;;;;;103547;1307;22479;-83
2022/11/29 10:18:31;;;;;;;31.00;15.80;;;;;;;;;;103554;1304;22610;-78
2022/11/29 10:21:02;;;;;;;32.90;15.70;;;;;;;;;;103707;1304;22495;-80
2022/11/29 10:23:28;;;;;;;30.70;15.30;;;;;;;;;;103513;1307;24237;-76
2022/11/29 10:25:56;;;;;;;29.20;14.60;;;;;;;;;;103582;1299;25267;-77
2022/11/29 10:28:24;;;;;;;30.20;14.80;;;;;;;;;;103592;1307;22488;-76
2022/11/29 10:31:07;;;;;;;29.30;14.50;;;;;;;;;;103538;1305;24317;-82
2022/11/29 10:33:35;;;;;;;30.10;15.20;;;;;;;;;;103553;1307;22506;-80
2022/11/29 10:36:03;;;;;;;40.70;18.70;;;;;;;;;;103784;1289;25212;-76
2022/11/29 10:38:30;;;;;;;31.40;15.60;;;;;;;;;;103819;1304;23886;-82
2022/11/29 10:41:05;;;;;;;33.20;15.00;;;;;;;;;;103528;1307;22490;-83
2022/11/29 10:43:32;;;;;;;27.20;14.40;;;;;;;;;;103645;1302;22716;-79
2022/11/29 10:45:59;;;;;;;36.00;16.10;;;;;;;;;;103586;1307;22594;-82
2022/11/29 10:48:27;;;;;;;36.40;16.20;;;;;;;;;;103486;1305;24236;-76
2022/11/29 10:50:54;;;;;;;28.30;14.40;;;;;;;;;;103335;1301;22548;-82
2022/11/29 10:53:23;;;;;;;31.80;17.10;;;;;;;;;;103587;1301;24321;-83
2022/11/29 10:55:53;;;;;;;29.50;14.90;;;;;;;;;;103844;1304;22493;-81
2022/11/29 10:58:25;;;;;;;34.50;15.90;;;;;;;;;;103736;1304;22473;-83
2022/11/29 11:00:52;;;;;;;32.20;15.40;;;;;;;;;;103719;1304;26444;-76
2022/11/29 11:03:28;;;;;;;27.50;14.80;;;;;;;;;;103434;1307;24370;-79
2022/11/29 11:06:21;;;;;;;36.90;15.60;;;;;;;;;;103530;1306;22464;-82
2022/11/29 11:08:52;;;;;;;29.40;14.50;;;;;;;;;;103570;1307;22737;-81
2022/11/29 11:11:30;;;;;;;27.00;14.30;;;;;;;;;;103532;1304;25214;-78
2022/11/29 11:13:58;;;;;;;32.70;15.50;;;;;;;;;;103729;1304;24503;-77
2022/11/29 11:16:25;;;;;;;35.10;15.70;;;;;;;;;;103568;1306;25425;-78
2022/11/29 11:18:53;;;;;;;30.00;15.80;;;;;;;;;;103630;1306;25373;-78
2022/11/29 11:21:20;;;;;;;33.20;16.20;;;;;;;;;;103770;1304;25324;-76
2022/11/29 11:24:00;;;;;;;30.10;15.70;;;;;;;;;;103465;1307;22498;-79
2022/11/29 11:26:40;;;;;;;26.90;14.00;;;;;;;;;;103619;1307;22595;-79
2022/11/29 11:29:14;;;;;;;27.10;13.10;;;;;;;;;;103592;1307;24846;-79
2022/11/29 11:31:41;;;;;;;32.50;15.30;;;;;;;;;;103552;1307;22469;-80
2022/11/29 11:34:24;;;;;;;30.20;15.80;;;;;;;;;;103454;1304;24350;-76
2022/11/29 11:36:52;;;;;;;34.70;15.80;;;;;;;;;;103662;1304;25384;-79
2022/11/29 11:39:20;;;;;;;34.90;15.40;;;;;;;;;;103746;1304;22959;-79
2022/11/29 11:44:40;;;;;;;34.30;15.70;;;;;;;;;;103580;1298;25343;-77
2022/11/29 11:47:11;;;;;;;31.90;15.20;;;;;;;;;;103492;1297;22835;-75
2022/11/29 11:49:58;;;;;;;38.00;16.20;;;;;;;;;;103485;1307;24333;-79
2022/11/29 11:52:28;;;;;;;27.30;13.70;;;;;;;;;;103711;1304;22486;-75
2022/11/29 11:54:59;;;;;;;30.00;16.00;;;;;;;;;;103666;1304;23910;-77
2022/11/29 11:57:27;;;;;;;27.50;13.70;;;;;;;;;;103779;1304;24387;-80
2022/11/29 11:59:54;;;;;;;30.10;14.00;;;;;;;;;;103765;1296;22479;-76
2022/11/29 12:02:39;;;;;;;35.40;16.20;;;;;;;;;;103793;1304;24220;-82
2022/11/29 12:05:12;;;;;;;32.40;15.60;;;;;;;;;;103495;1289;24250;-80
2022/11/29 12:07:42;;;;;;;31.10;14.90;;;;;;;;;;103661;1307;22513;-75
2022/11/29 12:10:19;;;;;;;36.10;15.60;;;;;;;;;;103532;1307;22471;-77
2022/11/29 12:12:47;;;;;;;27.50;14.50;;;;;;;;;;103637;1304;24170;-81
2022/11/29 12:15:16;;;;;;;29.70;14.20;;;;;;;;;;103813;1304;22508;-79
2022/11/29 12:17:45;;;;;;;30.50;15.70;;;;;;;;;;103800;1298;22553;-77
2022/11/29 12:20:23;;;;;;;31.20;15.00;;;;;;;;;;103783;1304;22421;-77
2022/11/29 12:22:58;;;;;;;33.60;14.70;;;;;;;;;;103619;1304;23856;-82
2022/11/29 12:25:27;;;;;;;29.20;14.00;;;;;;;;;;103653;1292;24217;-80
2022/11/29 12:27:53;;;;;;;30.60;14.70;;;;;;;;;;103561;1307;22486;-76
2022/11/29 12:30:20;;;;;;;35.00;15.50;;;;;;;;;;103545;1307;26569;-77
2022/11/29 12:32:54;;;;;;;36.90;15.20;;;;;;;;;;103567;1298;22589;-77
2022/11/29 12:35:39;;;;;;;32.60;14.50;;;;;;;;;;103499;1304;22469;-83
2022/11/29 12:38:09;;;;;;;30.10;14.70;;;;;;;;;;103746;1304;24234;-82
2022/11/29 12:40:39;;;;;;;34.60;15.80;;;;;;;;;;103635;1304;25222;-80
2022/11/29 12:43:10;;;;;;;35.10;16.40;;;;;;;;;;103803;1304;24317;-75
2022/11/29 12:45:52;;;;;;;32.30;15.60;;;;;;;;;;103492;1307;23654;-82
2022/11/29 12:48:31;;;;;;;40.40;17.70;;;;;;;;;;103619;1306;22529;-82
2022/11/29 12:51:01;;;;;;;33.40;16.30;;;;;;;;;;103729;1295;24234;-78
2022/11/29 12:53:31;;;;;;;41.00;17.10;;;;;;;;;;103618;1282;26558;-75
2022/11/29 12:56:17;;;;;;;33.90;15.90;;;;;;;;;;103692;1288;24419;-77
2022/11/29 12:58:48;;;;;;;38.40;17.90;;;;;;;;;;103805;1275;25379;-76
2022/11/29 13:01:27;;;;;;;31.60;15.70;;;;;;;;;;103772;1289;22466;-79
2022/11/29 13:04:03;;;;;;;32.00;15.20;;;;;;;;;;103600;1283;22589;-81
2022/11/29 13:06:35;;;;;;;29.90;14.70;;;;;;;;;;103606;1288;22471;-75
2022/11/29 13:09:12;;;;;;;30.60;15.30;;;;;;;;;;103565;1287;25325;-76
2022/11/29 13:11:42;;;;;;;34.70;16.90;;;;;;;;;;103673;1281;21699;-75
2022/11/29 13:14:28;;;;;;;34.20;17.20;;;;;;;;;;103682;1289;22476;-76
2022/11/29 13:17:00;;;;;;;34.40;16.90;;;;;;;;;;103671;1275;24458;-75
2022/11/29 13:19:33;;;;;;;36.30;17.40;;;;;;;;;;103610;1289;22482;-80
2022/11/29 13:22:13;;;;;;;35.60;16.80;;;;;;;;;;103755;1281;22818;-76
2022/11/29 13:24:48;;;;;;;36.70;17.80;;;;;;;;;;103714;1288;22524;-76
2022/11/29 13:27:24;;;;;;;36.90;16.60;;;;;;;;;;103553;1289;24232;-76
2022/11/29 13:29:51;;;;;;;34.90;17.20;;;;;;;;;;103613;1282;22630;-79
2022/11/29 13:32:30;;;;;;;32.50;17.60;;;;;;;;;;103493;1281;22931;-76
2022/11/29 13:35:00;;;;;;;32.30;17.30;;;;;;;;;;102502;1282;1331186;-77
2022/11/29 13:37:34;;;;;;;34.80;16.20;;;;;;;;;;103673;1288;24215;-79
2022/11/29 13:40:04;;;;;;;37.10;16.80;;;;;;;;;;103611;1288;24333;-80
2022/11/29 13:42:46;;;;;;;36.80;17.80;;;;;;;;;;103578;1288;22478;-75
2022/11/29 13:45:19;;;;;;;33.40;17.40;;;;;;;;;;103601;1289;24217;-77
2022/11/29 13:47:51;;;;;;;35.10;17.30;;;;;;;;;;103612;1282;24197;-78
2022/11/29 13:50:41;;;;;;;31.60;16.00;;;;;;;;;;103488;1292;25397;-79
2022/11/29 13:53:19;;;;;;;31.90;15.80;;;;;;;;;;103489;1289;22468;-79
2022/11/29 13:56:01;;;;;;;34.00;16.50;;;;;;;;;;103579;1288;25226;-77
2022/11/29 13:58:38;;;;;;;33.60;16.80;;;;;;;;;;103761;1282;25309;-79
2022/11/29 14:01:10;;;;;;;38.30;17.90;;;;;;;;;;103840;1282;23194;-78
2022/11/29 14:03:44;;;;;;;36.60;17.20;;;;;;;;;;103833;1304;26476;-76
2022/11/29 14:06:11;;;;;;;35.40;17.40;;;;;;;;;;103695;1304;25368;-76
2022/11/29 14:08:37;;;;;;;35.60;16.90;;;;;;;;;;103750;1307;22534;-81
2022/11/29 14:11:25;;;;;;;37.20;17.60;;;;;;;;;;103444;1307;24311;-81
2022/11/29 14:14:10;;;;;;;29.00;15.20;;;;;;;;;;103497;1296;22474;-82
2022/11/29 14:16:37;;;;;;;31.80;15.80;;;;;;;;;;103739;1304;25314;-77
2022/11/29 14:19:08;;;;;;;32.90;15.30;;;;;;;;;;103881;1304;22459;-79
2022/11/29 14:21:54;;;;;;;31.50;15.80;;;;;;;;;;103649;1307;22474;-82
2022/11/29 14:24:36;;;;;;;30.10;13.90;;;;;;;;;;103831;1295;22469;-80
2022/11/29 14:27:05;;;;;;;33.50;16.00;;;;;;;;;;103660;1298;25205;-76
2022/11/29 14:29:53;;;;;;;33.60;16.20;;;;;;;;;;103563;1290;24296;-82
2022/11/29 14:32:23;;;;;;;36.50;16.70;;;;;;;;;;103719;1305;22466;-80
2022/11/29 14:35:00;;;;;;;36.10;17.10;;;;;;;;;;103555;1298;24435;-81
2022/11/29 14:37:40;;;;;;;34.00;15.80;;;;;;;;;;103389;1298;22471;-78
2022/11/29 14:40:22;;;;;;;34.10;16.50;;;;;;;;;;103411;1304;24724;-77
2022/11/29 14:42:49;;;;;;;38.90;17.90;;;;;;;;;;103418;1304;22494;-82
2022/11/29 14:45:23;;;;;;;38.90;17.50;;;;;;;;;;103429;1303;22488;-78
2022/11/29 14:47:50;;;;;;;37.80;16.30;;;;;;;;;;103593;1306;26581;-80
2022/11/29 14:50:29;;;;;;;38.80;16.70;;;;;;;;;;103731;1307;25264;-76